createdAt,value
2022-09-16T00:03:45.462Z,99031.05
2022-09-16T00:13:51.905Z,99029.41
2022-09-16T00:24:10.152Z,99021.52
2022-09-16T00:34:30.383Z,99035.08
2022-09-16T00:45:42.547Z,99037.61
2022-09-16T00:55:53.548Z,99033.73
2022-09-16T01:06:03.505Z,99036.02
2022-09-16T01:17:03.535Z,99035.54
2022-09-16T01:28:08.914Z,99036.77
2022-09-16T01:39:08.192Z,99043.43
2022-09-16T01:49:51.020Z,99051.41
2022-09-16T02:00:10.756Z,99055.38
2022-09-16T02:11:00.822Z,99055.90
2022-09-16T02:21:28.030Z,99062.55
2022-09-16T02:31:39.675Z,99060.89
2022-09-16T02:41:46.696Z,99062.94
2022-09-16T02:52:42.660Z,99061.01
2022-09-16T03:02:51.665Z,99062.96
2022-09-16T03:13:29.692Z,99056.75
2022-09-16T03:24:14.806Z,99060.89
2022-09-16T03:34:54.323Z,99068.55
2022-09-16T03:45:03.420Z,99069.71
2022-09-16T03:55:28.545Z,99075.86
2022-09-16T04:05:37.678Z,99082.36
2022-09-16T04:16:45.118Z,99086.92
2022-09-16T04:27:04.535Z,99082.80
2022-09-16T04:37:53.011Z,99085.27
2022-09-16T04:48:18.030Z,99091.59
2022-09-16T04:58:34.660Z,99097.23
2022-09-16T05:09:42.182Z,99105.05
2022-09-16T05:20:31.842Z,99098.13
2022-09-16T05:31:35.662Z,99109.48
2022-09-16T05:41:56.745Z,99113.92
2022-09-16T05:52:42.835Z,99115.38
2022-09-16T06:03:33.651Z,99121.61
2022-09-16T06:14:32.070Z,99115.09
2022-09-16T06:25:28.464Z,99111.14
2022-09-16T06:35:59.889Z,99119.66
2022-09-16T06:46:16.292Z,99112.15
2022-09-16T06:56:39.819Z,99102.52
2022-09-16T07:07:09.207Z,99105.72
2022-09-16T07:17:13.918Z,99116.84
2022-09-16T07:27:17.287Z,99121.80
2022-09-16T07:37:26.047Z,99128.02
2022-09-16T07:47:41.144Z,99131.91
2022-09-16T07:57:44.556Z,99129.75
2022-09-16T08:07:51.323Z,99138.27
2022-09-16T08:18:07.090Z,99144.69
2022-09-16T08:28:20.178Z,99144.79
2022-09-16T08:38:26.560Z,99137.38
2022-09-16T08:48:50.984Z,99130.80
2022-09-16T08:59:17.875Z,99132.16
2022-09-16T09:09:57.773Z,99131.48
2022-09-16T09:20:44.683Z,99137.34
2022-09-16T09:31:18.815Z,99141.00
2022-09-16T09:41:34.651Z,99145.36
2022-09-16T09:52:05.285Z,99144.77
2022-09-16T10:02:59.222Z,99146.32
2022-09-16T10:13:14.632Z,99137.90
2022-09-16T10:23:29.998Z,99141.84
2022-09-16T10:33:36.929Z,99134.38
2022-09-16T10:43:50.540Z,99135.80
2022-09-16T10:54:05.072Z,99136.11
2022-09-16T11:04:32.172Z,99128.93
2022-09-16T11:15:06.707Z,99133.91
2022-09-16T11:25:22.527Z,99132.92
2022-09-16T11:35:37.070Z,99123.98
2022-09-16T11:46:10.190Z,99099.87
2022-09-16T11:56:22.128Z,99104.79
2022-09-16T12:07:07.183Z,99102.61
2022-09-16T12:17:39.489Z,99107.79
2022-09-16T12:28:03.303Z,99104.90
2022-09-16T12:38:19.161Z,99104.44
2022-09-16T12:48:46.401Z,99103.14
2022-09-16T12:59:21.003Z,99093.85
2022-09-16T13:09:30.906Z,99082.24
2022-09-16T13:20:02.722Z,99079.08
2022-09-16T13:30:16.558Z,99074.46
2022-09-16T13:40:27.458Z,99074.02
2022-09-16T13:50:37.283Z,99071.20
2022-09-16T14:01:36.941Z,99074.54
2022-09-16T14:12:04.282Z,99069.06
2022-09-16T14:22:14.652Z,99066.29
2022-09-16T14:32:19.216Z,99066.59
2022-09-16T14:42:25.662Z,99061.66
2022-09-16T14:52:36.006Z,99054.66
2022-09-16T15:03:22.816Z,99059.80
2022-09-16T15:13:30.202Z,99057.54
2022-09-16T15:23:41.051Z,99049.67
2022-09-16T15:33:52.727Z,99046.88
2022-09-16T15:44:01.005Z,99046.20
2022-09-16T15:54:26.804Z,99043.40
2022-09-16T16:04:35.218Z,99042.70
2022-09-16T16:14:41.514Z,99037.52
2022-09-16T16:24:51.130Z,99047.88
2022-09-16T16:34:58.774Z,99050.51
2022-09-16T16:45:07.920Z,99049.11
2022-09-16T16:55:11.361Z,99052.60
2022-09-16T17:05:39.981Z,99053.09
2022-09-16T17:15:46.147Z,99060.84
2022-09-16T17:26:05.216Z,99066.43
2022-09-16T17:36:16.817Z,99062.12
2022-09-16T17:46:33.952Z,99068.09
2022-09-16T17:56:45.740Z,99077.20
2022-09-16T18:07:05.267Z,99073.13
2022-09-16T18:17:24.538Z,99075.11
2022-09-16T18:28:25.566Z,99072.11
2022-09-16T18:39:08.218Z,99077.84
2022-09-16T18:49:16.434Z,99074.12
2022-09-16T18:59:45.489Z,99074.53
2022-09-16T19:09:54.766Z,99078.36
2022-09-16T19:20:00.763Z,99077.41
2022-09-16T19:30:30.295Z,99074.23
2022-09-16T19:40:33.760Z,99078.64
2022-09-16T19:50:52.943Z,99072.21
2022-09-16T20:01:03.135Z,99081.07
2022-09-16T20:11:24.343Z,99078.92
2022-09-16T20:21:35.431Z,99082.84
2022-09-16T20:32:05.181Z,99087.41
2022-09-16T20:42:26.049Z,99093.08
2022-09-16T20:52:49.811Z,99101.10
2022-09-16T21:03:21.410Z,99103.64
2022-09-16T21:14:10.002Z,99107.08
2022-09-16T21:24:59.815Z,99102.67
2022-09-16T21:35:23.615Z,99105.17
2022-09-16T21:45:33.533Z,99105.88
2022-09-16T21:56:30.389Z,99110.41
2022-09-16T22:07:10.936Z,99114.98
2022-09-16T22:18:25.068Z,99112.23
2022-09-16T22:28:49.453Z,99105.12
2022-09-16T22:40:02.893Z,99101.77
2022-09-16T22:50:43.835Z,99101.86
2022-09-16T23:00:58.747Z,99099.25
2022-09-16T23:11:51.916Z,99093.20
2022-09-16T23:22:03.624Z,99078.23
2022-09-16T23:32:26.488Z,99074.98
2022-09-16T23:42:51.076Z,99069.39
2022-09-16T23:52:58.376Z,99073.65
